sensor_id;sensor_type;location;lat;lon;timestamp;P1;durP1;ratioP1;P2;durP2;ratioP2
64932;SDS011;51446;53.850;10.662;2023-08-20T00:00:04;11.43;;;4.30;;
64932;SDS011;51446;53.850;10.662;2023-08-20T00:02:31;9.40;;;4.75;;
64932;SDS011;51446;53.850;10.662;2023-08-20T00:04:58;9.57;;;4.68;;
64932;SDS011;51446;53.850;10.662;2023-08-20T00:07:24;13.33;;;5.73;;
64932;SDS011;51446;53.850;10.662;2023-08-20T00:09:49;11.15;;;6.03;;
64932;SDS011;51446;53.850;10.662;2023-08-20T00:12:14;11.90;;;5.80;;
64932;SDS011;51446;53.850;10.662;2023-08-20T00:17:31;14.00;;;4.88;;
64932;SDS011;51446;53.850;10.662;2023-08-20T00:19:57;11.57;;;6.00;;
64932;SDS011;51446;53.850;10.662;2023-08-20T00:22:23;12.17;;;6.40;;
64932;SDS011;51446;53.850;10.662;2023-08-20T00:24:50;14.35;;;5.55;;
64932;SDS011;51446;53.850;10.662;2023-08-20T00:27:16;12.82;;;5.68;;
64932;SDS011;51446;53.850;10.662;2023-08-20T00:29:42;9.40;;;6.00;;
64932;SDS011;51446;53.850;10.662;2023-08-20T00:32:07;18.07;;;7.50;;
64932;SDS011;51446;53.850;10.662;2023-08-20T00:34:33;14.53;;;7.60;;
64932;SDS011;51446;53.850;10.662;2023-08-20T00:36:58;13.37;;;6.90;;
64932;SDS011;51446;53.850;10.662;2023-08-20T00:39:23;14.70;;;7.73;;
64932;SDS011;51446;53.850;10.662;2023-08-20T00:41:49;17.17;;;7.17;;
64932;SDS011;51446;53.850;10.662;2023-08-20T00:44:14;19.00;;;8.40;;
64932;SDS011;51446;53.850;10.662;2023-08-20T00:46:39;19.50;;;7.60;;
64932;SDS011;51446;53.850;10.662;2023-08-20T00:49:04;20.63;;;8.43;;
64932;SDS011;51446;53.850;10.662;2023-08-20T00:51:32;20.67;;;8.90;;
64932;SDS011;51446;53.850;10.662;2023-08-20T00:53:58;19.05;;;9.10;;
64932;SDS011;51446;53.850;10.662;2023-08-20T00:56:25;21.00;;;10.63;;
64932;SDS011;51446;53.850;10.662;2023-08-20T00:58:52;15.40;;;8.33;;
64932;SDS011;51446;53.850;10.662;2023-08-20T01:01:18;18.23;;;9.55;;
64932;SDS011;51446;53.850;10.662;2023-08-20T01:03:44;20.50;;;10.03;;
64932;SDS011;51446;53.850;10.662;2023-08-20T01:06:12;18.73;;;9.57;;
64932;SDS011;51446;53.850;10.662;2023-08-20T01:09:04;23.98;;;10.77;;
64932;SDS011;51446;53.850;10.662;2023-08-20T01:11:36;20.08;;;9.70;;
64932;SDS011;51446;53.850;10.662;2023-08-20T01:14:03;23.17;;;11.25;;
64932;SDS011;51446;53.850;10.662;2023-08-20T01:16:39;21.15;;;10.48;;
64932;SDS011;51446;53.850;10.662;2023-08-20T01:19:04;28.93;;;10.90;;
64932;SDS011;51446;53.850;10.662;2023-08-20T01:21:44;25.90;;;11.17;;
64932;SDS011;51446;53.850;10.662;2023-08-20T01:27:32;21.77;;;11.38;;
64932;SDS011;51446;53.850;10.662;2023-08-20T01:30:15;23.95;;;10.20;;
64932;SDS011;51446;53.850;10.662;2023-08-20T01:32:41;21.80;;;11.67;;
64932;SDS011;51446;53.850;10.662;2023-08-20T01:35:11;17.37;;;9.27;;
64932;SDS011;51446;53.850;10.662;2023-08-20T01:37:40;18.15;;;10.57;;
64932;SDS011;51446;53.850;10.662;2023-08-20T01:40:06;19.87;;;10.83;;
64932;SDS011;51446;53.850;10.662;2023-08-20T01:42:35;20.00;;;10.82;;
64932;SDS011;51446;53.850;10.662;2023-08-20T01:45:00;19.37;;;9.60;;
64932;SDS011;51446;53.850;10.662;2023-08-20T01:47:25;20.67;;;10.53;;
64932;SDS011;51446;53.850;10.662;2023-08-20T01:49:51;16.37;;;9.10;;
64932;SDS011;51446;53.850;10.662;2023-08-20T01:52:16;18.03;;;8.63;;
64932;SDS011;51446;53.850;10.662;2023-08-20T01:54:41;18.30;;;10.33;;
64932;SDS011;51446;53.850;10.662;2023-08-20T01:57:07;21.33;;;10.60;;
64932;SDS011;51446;53.850;10.662;2023-08-20T01:59:32;21.70;;;9.90;;
64932;SDS011;51446;53.850;10.662;2023-08-20T02:01:57;20.17;;;10.00;;
64932;SDS011;51446;53.850;10.662;2023-08-20T02:04:22;20.80;;;10.03;;
64932;SDS011;51446;53.850;10.662;2023-08-20T02:06:47;16.83;;;9.53;;
64932;SDS011;51446;53.850;10.662;2023-08-20T02:09:13;18.87;;;9.57;;
64932;SDS011;51446;53.850;10.662;2023-08-20T02:11:38;17.77;;;9.57;;
64932;SDS011;51446;53.850;10.662;2023-08-20T02:14:04;23.37;;;8.77;;
64932;SDS011;51446;53.850;10.662;2023-08-20T02:16:29;17.77;;;9.00;;
64932;SDS011;51446;53.850;10.662;2023-08-20T02:18:54;16.17;;;8.43;;
64932;SDS011;51446;53.850;10.662;2023-08-20T02:21:20;15.53;;;8.07;;
64932;SDS011;51446;53.850;10.662;2023-08-20T02:23:45;18.97;;;8.83;;
64932;SDS011;51446;53.850;10.662;2023-08-20T02:26:10;16.37;;;7.90;;
64932;SDS011;51446;53.850;10.662;2023-08-20T02:28:35;17.93;;;8.30;;
64932;SDS011;51446;53.850;10.662;2023-08-20T02:31:03;14.17;;;7.93;;
64932;SDS011;51446;53.850;10.662;2023-08-20T02:33:29;16.08;;;8.55;;
64932;SDS011;51446;53.850;10.662;2023-08-20T02:35:55;18.73;;;8.20;;
64932;SDS011;51446;53.850;10.662;2023-08-20T02:38:20;15.60;;;8.30;;
64932;SDS011;51446;53.850;10.662;2023-08-20T02:40:45;17.23;;;7.80;;
64932;SDS011;51446;53.850;10.662;2023-08-20T02:43:10;16.60;;;9.07;;
64932;SDS011;51446;53.850;10.662;2023-08-20T02:45:39;17.53;;;8.30;;
64932;SDS011;51446;53.850;10.662;2023-08-20T02:48:06;15.30;;;7.45;;
64932;SDS011;51446;53.850;10.662;2023-08-20T02:50:31;17.20;;;8.53;;
64932;SDS011;51446;53.850;10.662;2023-08-20T02:52:56;17.60;;;8.53;;
64932;SDS011;51446;53.850;10.662;2023-08-20T02:55:21;22.57;;;9.60;;
64932;SDS011;51446;53.850;10.662;2023-08-20T02:57:47;18.33;;;7.53;;
64932;SDS011;51446;53.850;10.662;2023-08-20T03:00:12;19.80;;;9.73;;
64932;SDS011;51446;53.850;10.662;2023-08-20T03:02:38;28.60;;;11.20;;
64932;SDS011;51446;53.850;10.662;2023-08-20T03:05:06;18.08;;;9.02;;
64932;SDS011;51446;53.850;10.662;2023-08-20T03:07:32;54.57;;;11.63;;
64932;SDS011;51446;53.850;10.662;2023-08-20T03:09:57;23.67;;;9.83;;
64932;SDS011;51446;53.850;10.662;2023-08-20T03:12:23;21.77;;;10.37;;
64932;SDS011;51446;53.850;10.662;2023-08-20T03:14:48;64.50;;;11.47;;
64932;SDS011;51446;53.850;10.662;2023-08-20T03:17:13;44.07;;;10.77;;
64932;SDS011;51446;53.850;10.662;2023-08-20T03:19:47;60.53;;;10.60;;
64932;SDS011;51446;53.850;10.662;2023-08-20T03:22:20;46.83;;;10.77;;
64932;SDS011;51446;53.850;10.662;2023-08-20T03:24:45;34.08;;;11.18;;
64932;SDS011;51446;53.850;10.662;2023-08-20T03:27:10;67.27;;;11.43;;
64932;SDS011;51446;53.850;10.662;2023-08-20T03:29:35;39.00;;;11.20;;
64932;SDS011;51446;53.850;10.662;2023-08-20T03:32:01;61.37;;;11.53;;
64932;SDS011;51446;53.850;10.662;2023-08-20T03:34:26;18.20;;;10.37;;
64932;SDS011;51446;53.850;10.662;2023-08-20T03:36:51;13.40;;;9.03;;
64932;SDS011;51446;53.850;10.662;2023-08-20T03:39:17;23.90;;;9.43;;
64932;SDS011;51446;53.850;10.662;2023-08-20T03:41:42;14.67;;;10.63;;
64932;SDS011;51446;53.850;10.662;2023-08-20T03:44:07;44.53;;;11.20;;
64932;SDS011;51446;53.850;10.662;2023-08-20T03:46:32;38.67;;;10.53;;
64932;SDS011;51446;53.850;10.662;2023-08-20T03:48:58;13.90;;;8.47;;
64932;SDS011;51446;53.850;10.662;2023-08-20T03:51:23;15.03;;;8.40;;
64932;SDS011;51446;53.850;10.662;2023-08-20T03:53:48;102.03;;;10.73;;
64932;SDS011;51446;53.850;10.662;2023-08-20T03:56:13;13.93;;;9.80;;
64932;SDS011;51446;53.850;10.662;2023-08-20T03:58:39;16.73;;;9.97;;
64932;SDS011;51446;53.850;10.662;2023-08-20T04:01:04;17.07;;;10.47;;
64932;SDS011;51446;53.850;10.662;2023-08-20T04:03:29;17.97;;;11.00;;
64932;SDS011;51446;53.850;10.662;2023-08-20T04:05:54;13.97;;;9.67;;
64932;SDS011;51446;53.850;10.662;2023-08-20T04:08:20;23.20;;;11.17;;
64932;SDS011;51446;53.850;10.662;2023-08-20T04:10:45;14.20;;;9.50;;
64932;SDS011;51446;53.850;10.662;2023-08-20T04:13:11;17.67;;;10.65;;
64932;SDS011;51446;53.850;10.662;2023-08-20T04:15:36;23.17;;;9.63;;
64932;SDS011;51446;53.850;10.662;2023-08-20T04:18:02;14.03;;;9.30;;
64932;SDS011;51446;53.850;10.662;2023-08-20T04:20:27;9.50;;;7.25;;
64932;SDS011;51446;53.850;10.662;2023-08-20T04:22:52;13.70;;;9.07;;
64932;SDS011;51446;53.850;10.662;2023-08-20T04:25:18;12.83;;;7.93;;
64932;SDS011;51446;53.850;10.662;2023-08-20T04:27:43;13.13;;;8.07;;
64932;SDS011;51446;53.850;10.662;2023-08-20T04:30:08;16.13;;;9.10;;
64932;SDS011;51446;53.850;10.662;2023-08-20T04:32:34;16.85;;;9.02;;
64932;SDS011;51446;53.850;10.662;2023-08-20T04:34:59;14.47;;;9.63;;
64932;SDS011;51446;53.850;10.662;2023-08-20T04:37:25;19.07;;;10.50;;
64932;SDS011;51446;53.850;10.662;2023-08-20T04:39:50;15.23;;;8.30;;
64932;SDS011;51446;53.850;10.662;2023-08-20T04:42:15;13.93;;;8.80;;
64932;SDS011;51446;53.850;10.662;2023-08-20T04:44:40;17.93;;;9.83;;
64932;SDS011;51446;53.850;10.662;2023-08-20T04:47:08;18.63;;;9.83;;
64932;SDS011;51446;53.850;10.662;2023-08-20T04:49:36;22.17;;;9.65;;
64932;SDS011;51446;53.850;10.662;2023-08-20T04:52:01;18.27;;;9.87;;
64932;SDS011;51446;53.850;10.662;2023-08-20T04:54:27;17.00;;;9.80;;
64932;SDS011;51446;53.850;10.662;2023-08-20T04:56:52;19.47;;;10.60;;
64932;SDS011;51446;53.850;10.662;2023-08-20T04:59:17;16.40;;;10.10;;
64932;SDS011;51446;53.850;10.662;2023-08-20T05:01:42;13.90;;;9.40;;
64932;SDS011;51446;53.850;10.662;2023-08-20T05:04:08;18.63;;;11.37;;
64932;SDS011;51446;53.850;10.662;2023-08-20T05:06:33;26.87;;;12.07;;
64932;SDS011;51446;53.850;10.662;2023-08-20T05:08:58;23.87;;;12.33;;
64932;SDS011;51446;53.850;10.662;2023-08-20T05:11:23;24.83;;;13.57;;
64932;SDS011;51446;53.850;10.662;2023-08-20T05:13:49;24.30;;;14.07;;
64932;SDS011;51446;53.850;10.662;2023-08-20T05:16:14;24.03;;;14.07;;
64932;SDS011;51446;53.850;10.662;2023-08-20T05:18:40;29.97;;;14.67;;
64932;SDS011;51446;53.850;10.662;2023-08-20T05:21:05;26.23;;;15.13;;
64932;SDS011;51446;53.850;10.662;2023-08-20T05:23:30;26.80;;;15.00;;
64932;SDS011;51446;53.850;10.662;2023-08-20T05:25:55;23.70;;;13.23;;
64932;SDS011;51446;53.850;10.662;2023-08-20T05:28:21;23.23;;;13.97;;
64932;SDS011;51446;53.850;10.662;2023-08-20T05:30:53;28.92;;;13.15;;
64932;SDS011;51446;53.850;10.662;2023-08-20T05:33:20;28.00;;;13.40;;
64932;SDS011;51446;53.850;10.662;2023-08-20T05:35:45;28.90;;;12.30;;
64932;SDS011;51446;53.850;10.662;2023-08-20T05:38:10;25.30;;;12.33;;
64932;SDS011;51446;53.850;10.662;2023-08-20T05:40:36;20.17;;;11.87;;
64932;SDS011;51446;53.850;10.662;2023-08-20T05:43:01;17.80;;;10.87;;
64932;SDS011;51446;53.850;10.662;2023-08-20T05:45:26;18.83;;;10.27;;
64932;SDS011;51446;53.850;10.662;2023-08-20T05:47:51;19.53;;;10.93;;
64932;SDS011;51446;53.850;10.662;2023-08-20T05:50:17;19.77;;;9.50;;
64932;SDS011;51446;53.850;10.662;2023-08-20T05:52:42;21.47;;;10.63;;
64932;SDS011;51446;53.850;10.662;2023-08-20T05:55:07;19.23;;;9.77;;
64932;SDS011;51446;53.850;10.662;2023-08-20T05:57:33;16.93;;;9.73;;
64932;SDS011;51446;53.850;10.662;2023-08-20T05:59:58;17.73;;;9.60;;
64932;SDS011;51446;53.850;10.662;2023-08-20T06:02:23;20.30;;;9.80;;
64932;SDS011;51446;53.850;10.662;2023-08-20T06:04:49;16.20;;;9.83;;
64932;SDS011;51446;53.850;10.662;2023-08-20T06:07:16;16.13;;;8.98;;
64932;SDS011;51446;53.850;10.662;2023-08-20T06:09:41;17.33;;;8.50;;
64932;SDS011;51446;53.850;10.662;2023-08-20T06:12:06;11.23;;;7.17;;
64932;SDS011;51446;53.850;10.662;2023-08-20T06:14:32;15.60;;;8.33;;
64932;SDS011;51446;53.850;10.662;2023-08-20T06:16:57;15.00;;;8.90;;
64932;SDS011;51446;53.850;10.662;2023-08-20T06:19:23;16.67;;;9.20;;
64932;SDS011;51446;53.850;10.662;2023-08-20T06:21:48;17.23;;;7.93;;
64932;SDS011;51446;53.850;10.662;2023-08-20T06:24:13;15.63;;;7.90;;
64932;SDS011;51446;53.850;10.662;2023-08-20T06:26:38;11.30;;;7.87;;
64932;SDS011;51446;53.850;10.662;2023-08-20T06:29:04;20.60;;;8.80;;
64932;SDS011;51446;53.850;10.662;2023-08-20T06:31:29;17.90;;;9.43;;
64932;SDS011;51446;53.850;10.662;2023-08-20T06:33:54;15.00;;;9.40;;
64932;SDS011;51446;53.850;10.662;2023-08-20T06:36:20;16.13;;;8.80;;
64932;SDS011;51446;53.850;10.662;2023-08-20T06:38:45;18.23;;;8.93;;
64932;SDS011;51446;53.850;10.662;2023-08-20T06:41:10;15.10;;;9.33;;
64932;SDS011;51446;53.850;10.662;2023-08-20T06:43:35;14.93;;;9.07;;
64932;SDS011;51446;53.850;10.662;2023-08-20T06:46:01;21.50;;;9.93;;
64932;SDS011;51446;53.850;10.662;2023-08-20T06:48:26;16.43;;;8.70;;
64932;SDS011;51446;53.850;10.662;2023-08-20T06:50:51;18.83;;;10.03;;
64932;SDS011;51446;53.850;10.662;2023-08-20T06:53:17;20.63;;;9.10;;
64932;SDS011;51446;53.850;10.662;2023-08-20T06:55:42;15.23;;;8.57;;
64932;SDS011;51446;53.850;10.662;2023-08-20T06:58:07;17.95;;;8.38;;
64932;SDS011;51446;53.850;10.662;2023-08-20T07:00:32;17.83;;;7.93;;
64932;SDS011;51446;53.850;10.662;2023-08-20T07:02:58;16.10;;;8.50;;
64932;SDS011;51446;53.850;10.662;2023-08-20T07:05:23;15.77;;;8.13;;
64932;SDS011;51446;53.850;10.662;2023-08-20T07:07:48;17.47;;;8.50;;
64932;SDS011;51446;53.850;10.662;2023-08-20T07:10:13;11.20;;;6.60;;
64932;SDS011;51446;53.850;10.662;2023-08-20T07:12:39;13.47;;;6.37;;
64932;SDS011;51446;53.850;10.662;2023-08-20T07:15:05;14.40;;;7.03;;
64932;SDS011;51446;53.850;10.662;2023-08-20T07:17:31;15.65;;;6.65;;
64932;SDS011;51446;53.850;10.662;2023-08-20T07:19:56;14.57;;;6.70;;
64932;SDS011;51446;53.850;10.662;2023-08-20T07:22:21;15.83;;;5.90;;
64932;SDS011;51446;53.850;10.662;2023-08-20T07:24:46;12.57;;;5.60;;
64932;SDS011;51446;53.850;10.662;2023-08-20T07:27:12;12.27;;;5.60;;
64932;SDS011;51446;53.850;10.662;2023-08-20T07:29:37;14.33;;;5.77;;
64932;SDS011;51446;53.850;10.662;2023-08-20T07:32:03;15.05;;;5.32;;
64932;SDS011;51446;53.850;10.662;2023-08-20T07:34:29;13.53;;;6.00;;
64932;SDS011;51446;53.850;10.662;2023-08-20T07:36:55;12.55;;;5.28;;
64932;SDS011;51446;53.850;10.662;2023-08-20T07:39:21;10.82;;;4.22;;
64932;SDS011;51446;53.850;10.662;2023-08-20T07:41:47;11.67;;;4.27;;
64932;SDS011;51446;53.850;10.662;2023-08-20T07:44:12;10.87;;;3.63;;
64932;SDS011;51446;53.850;10.662;2023-08-20T07:46:37;11.70;;;3.87;;
64932;SDS011;51446;53.850;10.662;2023-08-20T07:49:02;8.87;;;3.17;;
64932;SDS011;51446;53.850;10.662;2023-08-20T07:51:28;13.63;;;3.37;;
64932;SDS011;51446;53.850;10.662;2023-08-20T07:53:54;13.02;;;2.88;;
64932;SDS011;51446;53.850;10.662;2023-08-20T07:56:19;7.83;;;2.10;;
64932;SDS011;51446;53.850;10.662;2023-08-20T07:58:44;12.07;;;3.00;;
64932;SDS011;51446;53.850;10.662;2023-08-20T08:01:10;9.43;;;2.47;;
64932;SDS011;51446;53.850;10.662;2023-08-20T08:03:35;10.43;;;2.20;;
64932;SDS011;51446;53.850;10.662;2023-08-20T08:06:00;10.37;;;2.37;;
64932;SDS011;51446;53.850;10.662;2023-08-20T08:08:25;6.55;;;2.17;;
64932;SDS011;51446;53.850;10.662;2023-08-20T08:10:51;8.30;;;2.30;;
64932;SDS011;51446;53.850;10.662;2023-08-20T08:13:19;6.60;;;1.87;;
64932;SDS011;51446;53.850;10.662;2023-08-20T08:15:45;9.32;;;2.03;;
64932;SDS011;51446;53.850;10.662;2023-08-20T08:18:11;9.70;;;1.90;;
64932;SDS011;51446;53.850;10.662;2023-08-20T08:20:36;6.95;;;1.77;;
64932;SDS011;51446;53.850;10.662;2023-08-20T08:23:02;7.93;;;1.67;;
64932;SDS011;51446;53.850;10.662;2023-08-20T08:25:28;11.83;;;2.03;;
64932;SDS011;51446;53.850;10.662;2023-08-20T08:27:53;8.85;;;1.77;;
64932;SDS011;51446;53.850;10.662;2023-08-20T08:30:19;9.13;;;1.47;;
64932;SDS011;51446;53.850;10.662;2023-08-20T08:32:44;8.40;;;1.77;;
64932;SDS011;51446;53.850;10.662;2023-08-20T08:35:09;6.80;;;1.30;;
64932;SDS011;51446;53.850;10.662;2023-08-20T08:37:35;7.40;;;1.40;;
64932;SDS011;51446;53.850;10.662;2023-08-20T08:40:00;8.63;;;1.53;;
64932;SDS011;51446;53.850;10.662;2023-08-20T08:42:26;8.20;;;1.42;;
64932;SDS011;51446;53.850;10.662;2023-08-20T08:44:51;5.57;;;1.10;;
64932;SDS011;51446;53.850;10.662;2023-08-20T08:47:17;7.32;;;1.15;;
64932;SDS011;51446;53.850;10.662;2023-08-20T08:49:46;6.43;;;1.20;;
64932;SDS011;51446;53.850;10.662;2023-08-20T08:52:13;7.57;;;1.50;;
64932;SDS011;51446;53.850;10.662;2023-08-20T08:54:38;8.27;;;1.40;;
64932;SDS011;51446;53.850;10.662;2023-08-20T08:57:04;9.10;;;1.60;;
64932;SDS011;51446;53.850;10.662;2023-08-20T08:59:30;11.77;;;1.30;;
64932;SDS011;51446;53.850;10.662;2023-08-20T09:01:56;5.13;;;1.08;;
64932;SDS011;51446;53.850;10.662;2023-08-20T09:04:24;6.13;;;1.30;;
64932;SDS011;51446;53.850;10.662;2023-08-20T09:06:51;7.22;;;1.40;;
64932;SDS011;51446;53.850;10.662;2023-08-20T09:09:18;7.50;;;1.40;;
64932;SDS011;51446;53.850;10.662;2023-08-20T09:11:44;6.57;;;1.20;;
64932;SDS011;51446;53.850;10.662;2023-08-20T09:14:23;6.25;;;1.30;;
64932;SDS011;51446;53.850;10.662;2023-08-20T09:16:56;5.90;;;1.05;;
64932;SDS011;51446;53.850;10.662;2023-08-20T09:19:23;6.67;;;1.07;;
64932;SDS011;51446;53.850;10.662;2023-08-20T09:21:48;5.88;;;1.30;;
64932;SDS011;51446;53.850;10.662;2023-08-20T09:24:14;5.43;;;1.00;;
64932;SDS011;51446;53.850;10.662;2023-08-20T09:26:39;5.73;;;1.10;;
64932;SDS011;51446;53.850;10.662;2023-08-20T09:29:09;5.07;;;0.90;;
64932;SDS011;51446;53.850;10.662;2023-08-20T09:31:38;5.05;;;1.00;;
64932;SDS011;51446;53.850;10.662;2023-08-20T09:34:04;5.53;;;0.90;;
64932;SDS011;51446;53.850;10.662;2023-08-20T09:36:31;5.17;;;1.00;;
64932;SDS011;51446;53.850;10.662;2023-08-20T09:38:57;3.83;;;0.70;;
64932;SDS011;51446;53.850;10.662;2023-08-20T09:41:23;7.50;;;1.20;;
64932;SDS011;51446;53.850;10.662;2023-08-20T09:43:48;5.43;;;1.10;;
64932;SDS011;51446;53.850;10.662;2023-08-20T09:46:21;6.80;;;1.17;;
64932;SDS011;51446;53.850;10.662;2023-08-20T09:48:48;6.85;;;1.08;;
64932;SDS011;51446;53.850;10.662;2023-08-20T09:51:17;5.97;;;0.90;;
64932;SDS011;51446;53.850;10.662;2023-08-20T09:53:48;7.35;;;0.88;;
64932;SDS011;51446;53.850;10.662;2023-08-20T09:56:26;5.97;;;1.00;;
64932;SDS011;51446;53.850;10.662;2023-08-20T09:58:57;5.30;;;1.00;;
64932;SDS011;51446;53.850;10.662;2023-08-20T10:01:23;4.82;;;1.00;;
64932;SDS011;51446;53.850;10.662;2023-08-20T10:03:50;4.88;;;0.90;;
64932;SDS011;51446;53.850;10.662;2023-08-20T10:06:15;4.97;;;1.07;;
64932;SDS011;51446;53.850;10.662;2023-08-20T10:08:41;3.33;;;0.80;;
64932;SDS011;51446;53.850;10.662;2023-08-20T10:11:06;3.33;;;1.10;;
64932;SDS011;51446;53.850;10.662;2023-08-20T10:13:31;4.65;;;1.00;;
64932;SDS011;51446;53.850;10.662;2023-08-20T10:15:57;4.17;;;0.70;;
64932;SDS011;51446;53.850;10.662;2023-08-20T10:18:22;6.05;;;1.00;;
64932;SDS011;51446;53.850;10.662;2023-08-20T10:20:51;4.23;;;0.80;;
64932;SDS011;51446;53.850;10.662;2023-08-20T10:23:20;3.07;;;0.70;;
64932;SDS011;51446;53.850;10.662;2023-08-20T10:25:48;3.47;;;0.80;;
64932;SDS011;51446;53.850;10.662;2023-08-20T10:28:25;5.30;;;1.10;;
64932;SDS011;51446;53.850;10.662;2023-08-20T10:33:37;5.57;;;0.80;;
64932;SDS011;51446;53.850;10.662;2023-08-20T10:36:36;4.87;;;0.70;;
64932;SDS011;51446;53.850;10.662;2023-08-20T10:38:54;4.95;;;0.85;;
64932;SDS011;51446;53.850;10.662;2023-08-20T10:41:25;3.95;;;0.88;;
64932;SDS011;51446;53.850;10.662;2023-08-20T10:43:51;3.65;;;0.80;;
64932;SDS011;51446;53.850;10.662;2023-08-20T10:48:51;3.80;;;0.80;;
64932;SDS011;51446;53.850;10.662;2023-08-20T10:51:18;4.05;;;0.80;;
64932;SDS011;51446;53.850;10.662;2023-08-20T10:56:43;4.05;;;0.75;;
64932;SDS011;51446;53.850;10.662;2023-08-20T11:01:43;4.70;;;0.70;;
64932;SDS011;51446;53.850;10.662;2023-08-20T11:04:09;4.20;;;0.80;;
64932;SDS011;51446;53.850;10.662;2023-08-20T11:06:35;4.10;;;0.67;;
64932;SDS011;51446;53.850;10.662;2023-08-20T11:09:01;3.13;;;0.50;;
64932;SDS011;51446;53.850;10.662;2023-08-20T11:11:30;4.07;;;0.90;;
64932;SDS011;51446;53.850;10.662;2023-08-20T11:13:56;2.17;;;0.68;;
64932;SDS011;51446;53.850;10.662;2023-08-20T11:16:22;4.57;;;0.70;;
64932;SDS011;51446;53.850;10.662;2023-08-20T11:18:47;3.90;;;0.63;;
64932;SDS011;51446;53.850;10.662;2023-08-20T11:21:13;5.47;;;0.80;;
64932;SDS011;51446;53.850;10.662;2023-08-20T11:23:38;3.50;;;0.90;;
64932;SDS011;51446;53.850;10.662;2023-08-20T11:26:04;4.00;;;0.70;;
64932;SDS011;51446;53.850;10.662;2023-08-20T11:28:30;4.40;;;0.87;;
64932;SDS011;51446;53.850;10.662;2023-08-20T11:30:55;3.33;;;0.70;;
64932;SDS011;51446;53.850;10.662;2023-08-20T11:33:21;5.55;;;1.00;;
64932;SDS011;51446;53.850;10.662;2023-08-20T11:35:47;2.42;;;0.50;;
64932;SDS011;51446;53.850;10.662;2023-08-20T11:38:12;2.53;;;0.70;;
64932;SDS011;51446;53.850;10.662;2023-08-20T11:40:39;3.77;;;0.83;;
64932;SDS011;51446;53.850;10.662;2023-08-20T11:43:04;4.67;;;0.90;;
64932;SDS011;51446;53.850;10.662;2023-08-20T11:45:30;3.67;;;0.98;;
64932;SDS011;51446;53.850;10.662;2023-08-20T11:47:57;3.65;;;0.80;;
64932;SDS011;51446;53.850;10.662;2023-08-20T11:50:23;3.35;;;0.93;;
64932;SDS011;51446;53.850;10.662;2023-08-20T11:52:49;3.73;;;0.80;;
64932;SDS011;51446;53.850;10.662;2023-08-20T11:55:14;2.63;;;0.80;;
64932;SDS011;51446;53.850;10.662;2023-08-20T11:57:39;3.95;;;0.90;;
64932;SDS011;51446;53.850;10.662;2023-08-20T12:00:05;5.20;;;1.00;;
64932;SDS011;51446;53.850;10.662;2023-08-20T12:02:36;3.83;;;1.00;;
64932;SDS011;51446;53.850;10.662;2023-08-20T12:05:01;3.40;;;0.82;;
64932;SDS011;51446;53.850;10.662;2023-08-20T12:07:27;4.22;;;0.90;;
64932;SDS011;51446;53.850;10.662;2023-08-20T12:09:54;4.20;;;0.80;;
64932;SDS011;51446;53.850;10.662;2023-08-20T12:12:20;2.78;;;1.10;;
64932;SDS011;51446;53.850;10.662;2023-08-20T12:14:46;5.65;;;0.98;;
64932;SDS011;51446;53.850;10.662;2023-08-20T12:17:11;5.13;;;1.07;;
64932;SDS011;51446;53.850;10.662;2023-08-20T12:19:37;2.10;;;0.80;;
64932;SDS011;51446;53.850;10.662;2023-08-20T12:22:02;1.70;;;0.70;;
64932;SDS011;51446;53.850;10.662;2023-08-20T12:24:28;3.75;;;0.80;;
64932;SDS011;51446;53.850;10.662;2023-08-20T12:26:53;3.77;;;0.97;;
64932;SDS011;51446;53.850;10.662;2023-08-20T12:29:19;5.47;;;0.83;;
64932;SDS011;51446;53.850;10.662;2023-08-20T12:31:45;4.17;;;1.30;;
64932;SDS011;51446;53.850;10.662;2023-08-20T12:34:10;7.43;;;1.33;;
64932;SDS011;51446;53.850;10.662;2023-08-20T12:36:35;3.77;;;0.90;;
64932;SDS011;51446;53.850;10.662;2023-08-20T12:39:02;4.57;;;1.00;;
64932;SDS011;51446;53.850;10.662;2023-08-20T12:41:28;6.15;;;1.02;;
64932;SDS011;51446;53.850;10.662;2023-08-20T12:43:54;6.40;;;1.23;;
64932;SDS011;51446;53.850;10.662;2023-08-20T12:46:19;7.10;;;0.83;;
64932;SDS011;51446;53.850;10.662;2023-08-20T12:48:45;5.60;;;0.90;;
64932;SDS011;51446;53.850;10.662;2023-08-20T12:51:10;6.43;;;1.20;;
64932;SDS011;51446;53.850;10.662;2023-08-20T12:53:38;3.95;;;1.00;;
64932;SDS011;51446;53.850;10.662;2023-08-20T12:56:03;5.93;;;0.97;;
64932;SDS011;51446;53.850;10.662;2023-08-20T12:58:29;5.30;;;1.47;;
64932;SDS011;51446;53.850;10.662;2023-08-20T13:00:54;5.77;;;1.20;;
64932;SDS011;51446;53.850;10.662;2023-08-20T13:03:20;4.05;;;1.00;;
64932;SDS011;51446;53.850;10.662;2023-08-20T13:05:45;4.83;;;1.27;;
64932;SDS011;51446;53.850;10.662;2023-08-20T13:08:11;4.13;;;1.25;;
64932;SDS011;51446;53.850;10.662;2023-08-20T13:10:38;4.30;;;0.90;;
64932;SDS011;51446;53.850;10.662;2023-08-20T13:13:05;3.92;;;1.15;;
64932;SDS011;51446;53.850;10.662;2023-08-20T13:15:35;4.03;;;1.10;;
64932;SDS011;51446;53.850;10.662;2023-08-20T13:18:00;3.80;;;1.00;;
64932;SDS011;51446;53.850;10.662;2023-08-20T13:20:26;3.97;;;0.90;;
64932;SDS011;51446;53.850;10.662;2023-08-20T13:22:52;5.13;;;1.27;;
64932;SDS011;51446;53.850;10.662;2023-08-20T13:25:17;6.03;;;0.90;;
64932;SDS011;51446;53.850;10.662;2023-08-20T13:27:43;4.80;;;1.40;;
64932;SDS011;51446;53.850;10.662;2023-08-20T13:30:08;3.73;;;1.07;;
64932;SDS011;51446;53.850;10.662;2023-08-20T13:32:35;4.72;;;1.20;;
64932;SDS011;51446;53.850;10.662;2023-08-20T13:35:01;4.85;;;1.15;;
64932;SDS011;51446;53.850;10.662;2023-08-20T13:37:27;3.67;;;1.00;;
64932;SDS011;51446;53.850;10.662;2023-08-20T13:39:54;4.85;;;1.10;;
64932;SDS011;51446;53.850;10.662;2023-08-20T13:42:19;3.63;;;0.90;;
64932;SDS011;51446;53.850;10.662;2023-08-20T13:44:44;2.93;;;1.20;;
64932;SDS011;51446;53.850;10.662;2023-08-20T13:47:09;4.73;;;1.37;;
64932;SDS011;51446;53.850;10.662;2023-08-20T13:49:35;5.37;;;1.33;;
64932;SDS011;51446;53.850;10.662;2023-08-20T13:52:00;6.90;;;1.00;;
64932;SDS011;51446;53.850;10.662;2023-08-20T13:54:25;5.63;;;1.30;;
64932;SDS011;51446;53.850;10.662;2023-08-20T13:56:51;3.53;;;1.15;;
64932;SDS011;51446;53.850;10.662;2023-08-20T13:59:16;4.83;;;1.00;;
64932;SDS011;51446;53.850;10.662;2023-08-20T14:01:41;6.70;;;1.13;;
64932;SDS011;51446;53.850;10.662;2023-08-20T14:04:07;7.13;;;1.60;;
64932;SDS011;51446;53.850;10.662;2023-08-20T14:06:32;5.17;;;1.40;;
64932;SDS011;51446;53.850;10.662;2023-08-20T14:08:57;4.47;;;1.07;;
64932;SDS011;51446;53.850;10.662;2023-08-20T14:11:23;4.97;;;1.10;;
64932;SDS011;51446;53.850;10.662;2023-08-20T14:13:48;7.90;;;1.60;;
64932;SDS011;51446;53.850;10.662;2023-08-20T14:16:14;2.93;;;1.10;;
64932;SDS011;51446;53.850;10.662;2023-08-20T14:18:39;4.90;;;1.83;;
64932;SDS011;51446;53.850;10.662;2023-08-20T14:21:04;5.20;;;1.43;;
64932;SDS011;51446;53.850;10.662;2023-08-20T14:23:30;5.73;;;1.20;;
64932;SDS011;51446;53.850;10.662;2023-08-20T14:25:55;3.33;;;1.00;;
64932;SDS011;51446;53.850;10.662;2023-08-20T14:28:21;6.77;;;1.13;;
64932;SDS011;51446;53.850;10.662;2023-08-20T14:30:46;5.93;;;1.27;;
64932;SDS011;51446;53.850;10.662;2023-08-20T14:33:14;4.72;;;1.10;;
64932;SDS011;51446;53.850;10.662;2023-08-20T14:35:39;4.27;;;0.97;;